Time;durP1;ratioP1;P1;durP2;ratioP2;P2;SDS_P1;SDS_P2;PMS_P1;PMS_P2;Temp;Humidity;BMP_temperature;BMP_pressure;BME280_temperature;BME280_humidity;BME280_pressure;Samples;Min_cycle;Max_cycle;Signal;HPM_P1;HPM_P2
2021/03/01 00:06:53;;;;;;;25.33;11.75;;;;;;;2.15;78.26;101901.56;20983928;28;20055;-70
2021/03/01 00:16:54;;;;;;;30.25;12.65;;;;;;;2.26;77.63;101892.13;20983934;28;20056;-70
2021/03/01 00:26:55;;;;;;;23.48;11.88;;;;;;;2.26;77.88;101893.84;20984499;28;20048;-70
2021/03/01 00:36:56;;;;;;;28.45;11.40;;;;;;;2.14;77.79;101895.53;20983421;28;20044;-70
2021/03/01 00:46:57;;;;;;;26.40;11.98;;;;;;;1.95;78.68;101898.88;20989633;28;20052;-69
2021/03/01 00:56:58;;;;;;;23.92;11.15;;;;;;;1.84;79.55;101884.19;20918377;28;20500;-70
2021/03/01 01:06:59;;;;;;;25.80;12.38;;;;;;;1.76;79.71;101883.28;20895598;28;20416;-69
2021/03/01 01:17:00;;;;;;;26.90;11.60;;;;;;;1.86;78.74;101880.78;20912910;28;20063;-69
2021/03/01 01:27:02;;;;;;;27.48;12.00;;;;;;;1.69;79.14;101879.81;20912605;28;20060;-69
2021/03/01 01:37:03;;;;;;;29.40;12.77;;;;;;;1.70;79.15;101887.56;20910748;28;20049;-70
2021/03/01 01:47:03;;;;;;;29.42;12.45;;;;;;;1.59;79.83;101876.31;20911057;28;20095;-70
2021/03/01 01:57:05;;;;;;;24.58;10.88;;;;;;;1.51;80.25;101875.41;20909472;28;20099;-70
2021/03/01 02:07:25;;;;;;;28.73;10.73;;;;;;;1.44;80.47;101867.59;20908311;28;20118;-70
2021/03/01 02:17:29;;;;;;;25.45;10.82;;;;;;;1.30;80.75;101854.63;20908737;28;20128;-70
2021/03/01 02:27:36;;;;;;;25.15;11.00;;;;;;;1.17;82.09;101853.66;20907649;28;20049;-70
2021/03/01 02:37:39;;;;;;;25.83;12.18;;;;;;;0.86;82.88;101855.13;20906136;28;20049;-70
2021/03/01 02:47:42;;;;;;;28.02;10.52;;;;;;;0.77;83.49;101842.16;20905764;28;20045;-70
2021/03/01 02:57:45;;;;;;;27.42;11.00;;;;;;;0.72;84.74;101838.69;20984586;28;20055;-70
2021/03/01 03:07:48;;;;;;;27.83;11.82;;;;;;;0.50;84.91;101839.34;20986187;28;20094;-70
2021/03/01 03:17:50;;;;;;;28.08;11.23;;;;;;;0.38;86.18;101839.22;20987224;28;20082;-70
2021/03/01 03:27:51;;;;;;;28.23;12.45;;;;;;;0.53;85.99;101830.78;21000258;28;20040;-70
2021/03/01 03:38:11;;;;;;;27.88;12.45;;;;;;;0.54;85.75;101833.38;20997937;28;20048;-70
2021/03/01 03:48:14;;;;;;;30.83;11.43;;;;;;;0.35;87.17;101842.63;20995630;28;20059;-71
2021/03/01 03:58:21;;;;;;;27.13;11.45;;;;;;;0.20;88.45;101839.03;20984864;28;20087;-71
2021/03/01 04:08:24;;;;;;;35.42;12.80;;;;;;;0.07;89.27;101843.16;20983863;28;20093;-70
2021/03/01 04:18:33;;;;;;;30.02;13.20;;;;;;;-0.02;89.21;101841.34;20985412;28;20413;-70
2021/03/01 04:28:34;;;;;;;29.73;12.20;;;;;;;-0.03;90.27;101847.34;21000041;28;20044;-70
2021/03/01 04:38:36;;;;;;;30.42;12.90;;;;;;;-0.01;89.40;101848.25;20998242;28;20496;-70
2021/03/01 04:48:38;;;;;;;33.55;12.23;;;;;;;-0.17;90.35;101836.03;20998126;28;20052;-70
2021/03/01 04:58:41;;;;;;;31.40;12.45;;;;;;;-0.11;91.14;101841.25;20994382;28;20504;-70
2021/03/01 05:08:42;;;;;;;34.95;12.48;;;;;;;-0.28;91.77;101836.72;20996046;28;20052;-69
2021/03/01 05:18:43;;;;;;;28.70;12.55;;;;;;;-0.25;91.42;101839.31;20995755;28;20048;-69
2021/03/01 05:28:44;;;;;;;34.35;13.35;;;;;;;-0.37;92.54;101840.03;20977485;28;20459;-69
2021/03/01 05:38:45;;;;;;;34.17;13.50;;;;;;;-0.34;92.09;101850.38;20974742;28;20404;-69
2021/03/01 05:48:46;;;;;;;28.67;11.55;;;;;;;-0.38;92.53;101846.03;20993410;28;20118;-69
2021/03/01 05:58:50;;;;;;;29.98;12.13;;;;;;;-0.40;93.03;101858.00;20993031;28;20094;-69
2021/03/01 06:08:51;;;;;;;28.50;11.88;;;;;;;-0.41;93.03;101858.84;20991093;28;20508;-69
2021/03/01 06:18:52;;;;;;;28.63;12.63;;;;;;;-0.45;93.75;101870.78;20991568;28;20412;-69
2021/03/01 06:29:03;;;;;;;30.08;12.52;;;;;;;-0.49;94.01;101874.16;20975660;28;20155;-69
2021/03/01 06:39:04;;;;;;;28.70;11.93;;;;;;;-0.35;94.44;101884.63;20963829;28;20086;-69
2021/03/01 06:49:18;;;;;;;31.52;12.43;;;;;;;-0.21;93.89;101893.44;20948813;28;20048;-70
2021/03/01 06:59:20;;;;;;;27.13;12.20;;;;;;;0.16;93.42;101889.59;20943705;28;20534;-70
2021/03/01 07:09:24;;;;;;;26.90;11.00;;;;;;;0.40;91.45;101901.91;20897864;28;20079;-70
2021/03/01 07:19:27;;;;;;;29.15;12.30;;;;;;;0.69;91.31;101902.22;20892839;28;20111;-69
2021/03/01 07:29:31;;;;;;;29.20;12.55;;;;;;;0.92;90.24;101912.72;20903879;28;20126;-70
2021/03/01 07:39:33;;;;;;;29.10;13.52;;;;;;;1.17;88.92;101912.09;20901819;28;20037;-70
2021/03/01 07:49:48;;;;;;;32.88;13.30;;;;;;;1.43;87.93;101912.31;20901491;28;20045;-70
2021/03/01 07:59:49;;;;;;;33.35;13.13;;;;;;;1.80;85.95;101914.28;20920081;28;20057;-70
2021/03/01 08:09:53;;;;;;;27.25;12.82;;;;;;;2.09;85.07;101917.00;20915855;28;20128;-70
2021/03/01 08:20:22;;;;;;;26.67;12.40;;;;;;;2.59;81.21;101918.06;20914219;28;20504;-71
2021/03/01 08:30:32;;;;;;;29.20;12.63;;;;;;;3.11;79.56;101915.56;20914361;28;20427;-72
2021/03/01 08:40:33;;;;;;;25.50;11.20;;;;;;;3.36;76.70;101919.03;20915958;28;20051;-72
2021/03/01 08:50:39;;;;;;;24.90;11.13;;;;;;;3.48;75.87;101906.09;20919910;28;20686;-72
2021/03/01 09:00:50;;;;;;;25.10;11.25;;;;;;;3.84;74.88;101900.84;20928122;28;20053;-72
2021/03/01 09:10:51;;;;;;;25.80;12.63;;;;;;;4.18;73.78;101890.34;20923744;28;20041;-72
2021/03/01 09:20:57;;;;;;;25.88;12.30;;;;;;;4.56;72.60;101897.97;20913493;28;20102;-72
2021/03/01 09:31:17;;;;;;;25.88;11.40;;;;;;;5.12;71.13;101888.06;20911589;28;20053;-71
2021/03/01 09:41:18;;;;;;;26.38;11.18;;;;;;;5.45;69.00;101888.63;20911823;28;20183;-71
2021/03/01 09:51:21;;;;;;;25.65;11.88;;;;;;;5.96;67.85;101867.34;20908435;28;20417;-71
2021/03/01 10:01:26;;;;;;;24.95;11.80;;;;;;;6.26;66.08;101875.63;20909081;28;20057;-71
2021/03/01 10:11:27;;;;;;;22.23;11.60;;;;;;;6.60;64.67;101871.72;20909063;28;20503;-71
2021/03/01 10:21:32;;;;;;;26.77;11.05;;;;;;;6.98;62.29;101857.25;20908212;28;20404;-71
2021/03/01 10:31:34;;;;;;;19.67;10.43;;;;;;;7.28;61.85;101857.59;20906802;28;20053;-71
2021/03/01 10:41:41;;;;;;;20.02;10.40;;;;;;;7.71;60.21;101851.59;20907118;28;20497;-71
2021/03/01 10:51:42;;;;;;;19.25;10.45;;;;;;;8.14;58.73;101836.81;20902849;28;20501;-71
2021/03/01 11:01:45;;;;;;;18.15;10.05;;;;;;;8.19;58.78;101823.66;20906473;28;20470;-71
2021/03/01 11:11:48;;;;;;;21.48;10.50;;;;;;;8.50;56.70;101818.66;20904813;28;20432;-71
2021/03/01 11:21:49;;;;;;;19.17;10.13;;;;;;;8.90;54.27;101814.19;20902370;28;20564;-71
2021/03/01 11:31:51;;;;;;;16.95;9.02;;;;;;;9.16;52.88;101803.09;20897397;28;20471;-70
2021/03/01 11:41:52;;;;;;;17.90;8.85;;;;;;;9.69;49.98;101780.75;20886883;28;20076;-69
2021/03/01 11:51:53;;;;;;;16.95;7.60;;;;;;;10.03;45.39;101785.84;20904615;28;20071;-70
2021/03/01 12:01:54;;;;;;;14.40;7.30;;;;;;;10.20;46.07;101759.22;20902444;28;20055;-69
2021/03/01 12:11:55;;;;;;;13.68;7.68;;;;;;;10.42;43.99;101754.13;20901946;28;20049;-71
2021/03/01 12:21:56;;;;;;;14.07;8.02;;;;;;;10.46;45.68;101727.84;20882807;28;20088;-71
2021/03/01 12:31:57;;;;;;;14.60;7.22;;;;;;;10.76;44.03;101719.88;20900247;28;20128;-70
2021/03/01 12:41:58;;;;;;;13.05;7.10;;;;;;;10.97;42.84;101714.72;20889640;28;20432;-71
2021/03/01 12:51:59;;;;;;;14.98;8.40;;;;;;;11.16;41.59;101704.47;20917130;28;20071;-72
2021/03/01 13:02:00;;;;;;;17.05;8.30;;;;;;;11.29;42.33;101683.91;20913094;28;20053;-71
2021/03/01 13:12:01;;;;;;;14.00;6.97;;;;;;;11.38;41.92;101686.19;20913427;28;20079;-71
2021/03/01 13:22:03;;;;;;;16.63;8.15;;;;;;;11.30;42.54;101672.53;20913362;28;20045;-71
2021/03/01 13:32:06;;;;;;;16.85;7.80;;;;;;;11.75;40.63;101654.22;20912417;28;20041;-69
2021/03/01 13:42:26;;;;;;;12.40;8.05;;;;;;;11.64;42.03;101649.34;20909913;28;20124;-68
2021/03/01 13:52:27;;;;;;;14.40;7.88;;;;;;;11.79;40.55;101643.53;20941082;28;20070;-71
2021/03/01 14:02:37;;;;;;;16.65;8.02;;;;;;;11.73;42.87;101630.69;20923714;28;20485;-69
2021/03/01 14:12:39;;;;;;;13.48;8.23;;;;;;;12.11;40.60;101633.53;20917303;28;20044;-70
2021/03/01 14:22:40;;;;;;;14.38;7.47;;;;;;;12.21;40.75;101633.09;20909580;28;20468;-67
2021/03/01 14:32:41;;;;;;;15.65;8.38;;;;;;;12.26;40.08;101606.66;20907485;28;20045;-69
2021/03/01 14:42:52;;;;;;;16.58;8.18;;;;;;;12.35;40.67;101606.25;20887401;28;20056;-71
2021/03/01 14:52:53;;;;;;;13.77;7.28;;;;;;;12.34;40.21;101601.94;20909752;28;20045;-71
2021/03/01 15:02:54;;;;;;;12.88;7.40;;;;;;;12.46;40.33;101590.91;20926468;28;20060;-69
2021/03/01 15:13:14;;;;;;;16.35;8.45;;;;;;;12.35;40.22;101585.25;20932682;28;20064;-70
2021/03/01 15:23:16;;;;;;;15.38;7.82;;;;;;;12.40;41.44;101583.28;20900188;28;20059;-70
2021/03/01 15:33:18;;;;;;;13.90;8.32;;;;;;;12.48;41.09;101575.94;20894972;28;20045;-71
2021/03/01 15:43:38;;;;;;;12.10;7.13;;;;;;;12.43;41.08;101583.16;20900642;28;20037;-71
2021/03/01 15:53:40;;;;;;;16.73;8.40;;;;;;;12.43;40.86;101584.03;20895972;28;20124;-70
2021/03/01 16:03:40;;;;;;;15.02;8.32;;;;;;;12.12;42.17;101582.75;20897541;28;20076;-72
2021/03/01 16:14:01;;;;;;;15.50;8.23;;;;;;;12.23;41.91;101575.28;20896307;28;20124;-69
2021/03/01 16:24:03;;;;;;;14.05;7.78;;;;;;;12.14;41.99;101573.06;20916010;28;20041;-69
2021/03/01 16:34:04;;;;;;;15.80;7.47;;;;;;;11.85;43.23;101569.84;20914782;28;20126;-70
2021/03/01 16:44:24;;;;;;;14.82;7.93;;;;;;;11.57;44.65;101577.09;20915972;28;20512;-70
2021/03/01 16:54:25;;;;;;;16.20;8.80;;;;;;;11.31;45.87;101575.50;20912518;28;20459;-70
2021/03/01 17:04:26;;;;;;;15.82;8.35;;;;;;;11.11;45.97;101578.00;20893269;28;20057;-70
2021/03/01 17:14:56;;;;;;;19.17;10.73;;;;;;;10.95;46.32;101582.97;20910341;28;20068;-69
2021/03/01 17:24:57;;;;;;;16.05;8.98;;;;;;;10.80;46.96;101590.53;20908600;28;20501;-72
2021/03/01 17:34:59;;;;;;;21.65;11.55;;;;;;;10.27;51.34;101599.34;20905977;28;20049;-71
2021/03/01 17:45:17;;;;;;;21.95;11.75;;;;;;;9.88;53.86;101608.47;20907142;28;20041;-71
2021/03/01 17:55:41;;;;;;;24.92;13.13;;;;;;;9.61;55.04;101619.78;20887380;28;20056;-71
2021/03/01 18:05:53;;;;;;;23.23;11.85;;;;;;;9.35;56.16;101618.81;20887577;28;20048;-71
2021/03/01 18:15:57;;;;;;;29.27;13.77;;;;;;;9.14;57.05;101635.13;20914828;28;20098;-70
2021/03/01 18:25:58;;;;;;;26.92;14.88;;;;;;;8.82;57.70;101640.38;20908944;28;20099;-71
2021/03/01 18:36:01;;;;;;;30.23;14.38;;;;;;;8.49;58.67;101635.13;20901664;28;20056;-71
2021/03/01 18:46:07;;;;;;;26.85;13.88;;;;;;;8.42;58.48;101632.75;20905733;28;20051;-70
2021/03/01 18:56:09;;;;;;;29.85;13.73;;;;;;;8.31;59.17;101634.75;20906028;28;20041;-70
2021/03/01 19:06:10;;;;;;;29.10;14.00;;;;;;;7.84;61.03;101639.34;20904714;28;20044;-70
2021/03/01 19:16:21;;;;;;;26.55;12.88;;;;;;;7.48;62.42;101640.16;20904739;28;20578;-70
2021/03/01 19:26:23;;;;;;;31.42;14.55;;;;;;;7.48;62.90;101647.97;20901906;28;20044;-71
2021/03/01 19:36:24;;;;;;;25.55;12.73;;;;;;;7.36;63.63;101649.09;20900566;28;20094;-70
2021/03/01 19:46:39;;;;;;;;;;;;;;;7.03;64.31;101648.03;20872936;28;20041;-71
2021/03/01 19:56:41;;;;;;;31.92;16.33;;;;;;;6.78;65.18;101646.78;20899833;28;19924;-71
2021/03/01 20:06:42;;;;;;;24.95;12.70;;;;;;;6.66;65.54;101644.41;20901561;28;20091;-71
2021/03/01 20:17:04;;;;;;;24.55;13.20;;;;;;;6.39;66.90;101651.81;20901371;28;20128;-70
2021/03/01 20:27:06;;;;;;;26.48;13.70;;;;;;;6.28;67.66;101650.28;20883668;28;20115;-70
2021/03/01 20:37:07;;;;;;;31.52;15.23;;;;;;;6.16;68.40;101643.53;20903534;28;20099;-70
2021/03/01 20:47:25;;;;;;;26.60;13.45;;;;;;;6.28;67.53;101639.88;20901312;28;20045;-70
2021/03/01 20:57:30;;;;;;;25.83;12.70;;;;;;;6.23;67.37;101649.50;20900053;28;20048;-70
2021/03/01 21:07:31;;;;;;;27.60;13.00;;;;;;;6.10;67.99;101642.75;20918431;28;20052;-70
2021/03/01 21:17:49;;;;;;;27.13;13.35;;;;;;;5.84;69.15;101658.75;20968236;28;20052;-70
2021/03/01 21:27:55;;;;;;;30.48;14.55;;;;;;;5.39;71.66;101655.88;20970375;28;20079;-71
2021/03/01 21:37:57;;;;;;;29.75;14.35;;;;;;;5.51;71.10;101647.06;20973317;28;20060;-70
2021/03/01 21:48:16;;;;;;;29.15;14.32;;;;;;;5.59;70.17;101640.03;20985307;28;20488;-68
2021/03/01 21:58:18;;;;;;;31.42;14.00;;;;;;;5.60;69.69;101639.16;21006232;28;20044;-71
2021/03/01 22:08:20;;;;;;;25.98;13.80;;;;;;;5.51;70.10;101636.69;20971295;28;20060;-70
2021/03/01 22:18:33;;;;;;;24.65;11.77;;;;;;;5.36;70.64;101635.16;20823165;28;20052;-68
2021/03/01 22:28:39;;;;;;;27.08;12.43;;;;;;;5.27;70.93;101634.44;20824032;28;20052;-72
2021/03/01 22:38:44;;;;;;;28.33;13.55;;;;;;;5.24;71.02;101640.50;20903840;28;20114;-72
2021/03/01 22:48:54;;;;;;;27.42;13.85;;;;;;;5.29;70.78;101638.69;20907338;28;20087;-72
2021/03/01 22:58:56;;;;;;;29.67;14.38;;;;;;;5.16;71.78;101643.19;20906754;28;20236;-70
2021/03/01 23:08:57;;;;;;;27.13;12.07;;;;;;;5.02;72.15;101636.47;20909671;28;20071;-72
2021/03/01 23:19:14;;;;;;;24.77;11.73;;;;;;;4.61;73.79;101650.72;20925397;28;20612;-72
2021/03/01 23:29:29;;;;;;;28.60;13.07;;;;;;;4.22;76.10;101653.66;20902728;28;20045;-71
2021/03/01 23:39:33;;;;;;;26.45;12.80;;;;;;;4.19;75.90;101658.88;20902362;28;20044;-72
2021/03/01 23:49:51;;;;;;;24.30;13.02;;;;;;;4.18;76.84;101662.34;20902746;28;20140;-71
2021/03/01 23:59:53;;;;;;;32.28;14.75;;;;;;;4.13;76.62;101664.09;20902401;28;20132;-71
